createdAt,value
2018-05-25T07:29:50.088Z,48.2
2018-05-25T07:30:40.434Z,48.4
2018-05-25T07:31:29.933Z,48.6
2018-05-25T07:32:20.599Z,48.8
2018-05-25T07:33:10.424Z,48.9
2018-05-25T07:34:00.437Z,49.1
2018-05-25T07:34:50.485Z,49.3
2018-05-25T07:35:40.117Z,49.3
2018-05-25T07:36:31.180Z,49.3
2018-05-25T07:37:20.126Z,49.3
2018-05-25T07:38:11.321Z,49.4
2018-05-25T07:39:00.566Z,49.6
2018-05-25T07:39:51.181Z,49.8
2018-05-25T07:40:41.246Z,49.9
2018-05-25T07:41:31.334Z,50
2018-05-25T07:42:21.091Z,50.2
2018-05-25T07:43:10.868Z,50.3
2018-05-25T07:44:01.510Z,50.5
2018-05-25T07:44:51.848Z,50.6
2018-05-25T07:45:40.514Z,50.8
2018-05-25T07:46:31.729Z,50.9
2018-05-25T07:47:21.843Z,51.1
2018-05-25T07:48:11.606Z,51.2
2018-05-25T07:49:01.881Z,51.4
2018-05-25T07:49:51.643Z,51.5
2018-05-25T07:50:41.715Z,51.6
2018-05-25T07:51:31.503Z,51.8
2018-05-25T07:52:22.395Z,51.9
2018-05-25T07:53:12.471Z,52
2018-05-25T07:54:02.559Z,52.1
2018-05-25T07:54:52.592Z,52.2
2018-05-25T07:55:42.089Z,52.3
2018-05-25T07:56:32.485Z,52.4
2018-05-25T07:57:22.786Z,52.6
2018-05-25T07:58:12.870Z,52.7
2018-05-25T07:59:02.909Z,52.8
2018-05-25T07:59:53.007Z,52.9
2018-05-25T08:00:42.021Z,53
2018-05-25T08:01:33.111Z,53.1
2018-05-25T08:02:22.039Z,53.2
2018-05-25T08:03:13.281Z,53.3
2018-05-25T08:04:03.014Z,53.4
2018-05-25T08:04:53.349Z,53.4
2018-05-25T08:05:43.486Z,53.6
2018-05-25T08:06:33.537Z,53.6
2018-05-25T08:07:22.994Z,53.7
2018-05-25T08:08:13.344Z,53.8
2018-05-25T08:09:03.438Z,53.9
2018-05-25T08:09:53.471Z,54
2018-05-25T08:10:43.015Z,54.1
2018-05-25T08:11:33.599Z,54.2
2018-05-25T08:12:23.454Z,54.3
2018-05-25T08:13:14.029Z,54.4
2018-05-25T08:14:03.818Z,54.5
2018-05-25T08:14:53.638Z,54.6
2018-05-25T08:15:43.456Z,54.7
2018-05-25T08:16:33.432Z,54.8
2018-05-25T08:17:23.494Z,54.8
2018-05-25T08:18:13.587Z,54.9
2018-05-25T08:19:03.934Z,55
2018-05-25T08:19:53.411Z,55.1
2018-05-25T08:20:44.328Z,55.2
2018-05-25T08:21:34.108Z,55.3
2018-05-25T08:22:23.706Z,55.4
2018-05-25T08:23:13.706Z,55.5
2018-05-25T08:24:04.897Z,55.6
2018-05-25T08:24:54.948Z,55.6
2018-05-25T08:25:44.497Z,55.8
2018-05-25T08:26:34.538Z,55.9
2018-05-25T08:27:24.851Z,55.9
2018-05-25T08:28:14.639Z,56
2018-05-25T08:29:04.999Z,56.1
2018-05-25T08:29:54.839Z,56.2
2018-05-25T08:30:44.805Z,56.3
2018-05-25T08:31:34.133Z,56.4
2018-05-25T08:32:24.703Z,56.4
2018-05-25T08:33:15.019Z,56.5
2018-05-25T08:34:05.130Z,56.6
2018-05-25T08:34:55.141Z,56.7
2018-05-25T08:35:45.188Z,56.8
2018-05-25T08:36:35.109Z,56.8
2018-05-25T08:37:25.368Z,56.9
2018-05-25T08:38:15.999Z,57
2018-05-25T08:39:05.796Z,57.1
2018-05-25T08:39:55.652Z,57.2
2018-05-25T08:40:45.865Z,57.3
2018-05-25T08:41:35.634Z,57.4
2018-05-25T08:42:26.250Z,57.4
2018-05-25T08:43:16.731Z,57.5
2018-05-25T08:44:05.922Z,57.6
2018-05-25T08:44:56.248Z,57.7
2018-05-25T08:45:45.703Z,57.8
2018-05-25T08:46:36.643Z,57.9
2018-05-25T08:47:26.685Z,57.9
2018-05-25T08:48:16.109Z,58.1
2018-05-25T08:49:06.951Z,58.2
2018-05-25T08:49:56.136Z,58.3
2018-05-25T08:50:46.722Z,58.3
2018-05-25T08:51:36.727Z,58.4
2018-05-25T08:52:26.507Z,58.5
2018-05-25T08:54:07.341Z,58.7
2018-05-25T08:54:57.050Z,58.8
2018-05-25T08:55:46.837Z,58.9
2018-05-25T08:56:36.535Z,58.9
2018-05-25T08:57:26.919Z,59.1
2018-05-25T08:58:17.238Z,59.1
2018-05-25T08:59:07.335Z,59.2
2018-05-25T08:59:57.136Z,59.3
2018-05-25T09:00:46.958Z,59.3
2018-05-25T09:01:37.267Z,59.4
2018-05-25T09:02:27.575Z,59.4
2018-05-25T09:03:17.380Z,59.5
2018-05-25T09:04:07.752Z,59.6
2018-05-25T09:04:57.777Z,59.7
2018-05-25T09:05:47.843Z,59.8
2018-05-25T09:06:38.199Z,59.8
2018-05-25T09:07:28.270Z,59.8
2018-05-25T09:08:18.068Z,59.9
2018-05-25T09:09:07.846Z,60.1
2018-05-25T09:09:57.900Z,60.1
2018-05-25T09:10:47.952Z,60.1
2018-05-25T09:11:38.324Z,60.3
2018-05-25T09:12:29.095Z,60.3
2018-05-25T09:13:18.761Z,60.5
2018-05-25T09:14:08.560Z,60.5
2018-05-25T09:14:58.331Z,60.6
2018-05-25T09:15:48.590Z,60.7
2018-05-25T09:16:37.606Z,60.8
2018-05-25T09:17:28.538Z,60.8
2018-05-25T09:18:18.822Z,61
2018-05-25T09:19:08.888Z,61.1
2018-05-25T09:19:58.662Z,61.1
2018-05-25T09:20:48.727Z,61.3
2018-05-25T09:21:39.779Z,61.3
2018-05-25T09:22:28.873Z,61.4
2018-05-25T09:23:19.194Z,61.5
2018-05-25T09:24:08.981Z,61.6
2018-05-25T09:24:58.795Z,61.6
2018-05-25T09:25:49.390Z,61.6
2018-05-25T09:26:39.703Z,61.7
2018-05-25T09:27:28.403Z,61.8
2018-05-25T09:28:19.935Z,61.9
2018-05-25T09:29:08.584Z,62
2018-05-25T09:29:58.964Z,62.1
2018-05-25T09:30:50.346Z,62.1
2018-05-25T09:31:39.560Z,62.3
2018-05-25T09:32:30.170Z,62.4
2018-05-25T09:33:19.494Z,62.4
2018-05-25T09:34:10.073Z,62.6
2018-05-25T09:34:59.792Z,62.6
2018-05-25T09:35:50.469Z,62.7
2018-05-25T09:36:39.676Z,62.8
2018-05-25T09:37:30.028Z,62.9
2018-05-25T09:38:20.403Z,62.9
2018-05-25T09:39:10.177Z,63
2018-05-25T09:40:00.496Z,63.1
2018-05-25T09:40:50.857Z,63.3
2018-05-25T09:41:40.091Z,63.3
2018-05-25T09:42:30.996Z,63.3
2018-05-25T09:43:20.852Z,63.3
2018-05-25T09:44:10.827Z,63.4
2018-05-25T09:45:00.595Z,63.6
2018-05-25T09:45:50.879Z,63.7
2018-05-25T09:46:41.313Z,63.8
2018-05-25T09:47:30.802Z,63.9
2018-05-25T09:48:21.129Z,64
2018-05-25T09:49:10.932Z,64.1
2018-05-25T09:50:00.981Z,64.1
2018-05-25T09:50:51.608Z,63.8
2018-05-25T09:51:41.674Z,63.5
2018-05-25T09:52:31.775Z,63.2
2018-05-25T09:53:21.805Z,62.9
2018-05-25T09:54:11.597Z,62.8
2018-05-25T09:55:01.399Z,62.6
2018-05-25T09:55:52.011Z,62.6
2018-05-25T09:56:41.500Z,62.6
2018-05-25T09:57:31.832Z,62.8
2018-05-25T09:58:22.200Z,63.2
2018-05-25T09:59:11.449Z,63.5
2018-05-25T10:00:02.064Z,63.7
2018-05-25T10:00:52.159Z,63.9
2018-05-25T10:01:42.185Z,64.1
2018-05-25T10:02:32.493Z,64.1
2018-05-25T10:03:22.024Z,64.3
2018-05-25T10:04:12.681Z,64.4
2018-05-25T10:05:02.195Z,64.6
2018-05-25T10:05:52.591Z,64.7
2018-05-25T10:06:42.382Z,64.8
2018-05-25T10:07:32.323Z,64.9
2018-05-25T10:08:22.709Z,64.9
2018-05-25T10:09:12.501Z,65.1
2018-05-25T10:10:02.547Z,65.1
2018-05-25T10:10:52.332Z,65.1
2018-05-25T10:11:43.292Z,64.9
2018-05-25T10:12:32.735Z,64.8
2018-05-25T10:13:22.837Z,64.8
2018-05-25T10:14:12.894Z,65
2018-05-25T10:15:03.520Z,65.1
2018-05-25T10:15:53.286Z,65.3
2018-05-25T10:16:43.650Z,65.2
2018-05-25T10:17:33.139Z,65.1
2018-05-25T10:18:23.503Z,65
2018-05-25T10:19:13.245Z,64.9
2018-05-25T10:20:03.351Z,64.9
2018-05-25T10:20:53.471Z,65.1
2018-05-25T10:21:44.010Z,65.4
2018-05-25T10:22:33.794Z,65.6
2018-05-25T10:23:24.154Z,65.7
2018-05-25T10:24:13.708Z,65.8
2018-05-25T10:25:04.268Z,65.9
2018-05-25T10:25:53.783Z,66
2018-05-25T10:26:43.271Z,66.1
2018-05-25T10:27:34.187Z,66.1
2018-05-25T10:28:23.988Z,65.8
2018-05-25T10:29:14.539Z,65.4
2018-05-25T10:30:04.105Z,65.2
2018-05-25T10:30:54.717Z,65.1
2018-05-25T10:31:42.889Z,65.3
2018-05-25T10:32:33.810Z,65.6
2018-05-25T10:33:24.895Z,65.8
2018-05-25T10:34:14.744Z,66
2018-05-25T10:35:05.291Z,66.1
2018-05-25T10:35:55.098Z,66.2
2018-05-25T10:36:44.611Z,66.3
2018-05-25T10:37:35.235Z,66.4
2018-05-25T10:38:25.315Z,66.6
2018-05-25T10:39:14.246Z,66.6
2018-05-25T10:40:04.925Z,66.8
2018-05-25T10:40:55.294Z,66.8
2018-05-25T10:41:45.584Z,66.6
2018-05-25T10:42:35.615Z,66.4
2018-05-25T10:43:25.392Z,66.3
2018-05-25T10:44:15.504Z,66.2
2018-05-25T10:45:05.559Z,66.1
2018-05-25T10:45:55.315Z,66.1
2018-05-25T10:46:45.668Z,66.3
2018-05-25T10:47:35.694Z,66.4
2018-05-25T10:48:25.899Z,66.6
2018-05-25T10:49:14.711Z,66.8
2018-05-25T10:50:05.686Z,66.9
2018-05-25T10:50:55.953Z,66.9
2018-05-25T10:51:45.759Z,67.1
2018-05-25T10:52:36.394Z,67.1
2018-05-25T10:53:25.914Z,67.3
2018-05-25T10:54:16.552Z,67.4
2018-05-25T10:55:06.611Z,67.4
2018-05-25T10:55:56.662Z,67.4
2018-05-25T10:56:46.170Z,67.5
2018-05-25T10:57:35.915Z,67.5
2018-05-25T10:58:26.108Z,67.6
2018-05-25T10:59:16.372Z,67.7
2018-05-25T11:00:06.482Z,67.8
2018-05-25T11:00:57.073Z,67.8
2018-05-25T11:01:46.843Z,67.9
2018-05-25T11:02:36.319Z,68
2018-05-25T11:03:26.709Z,68.1
2018-05-25T11:04:15.952Z,68.1
2018-05-25T11:05:07.115Z,68.1
2018-05-25T11:05:56.585Z,68.3
2018-05-25T11:06:47.207Z,68.3
2018-05-25T11:07:37.572Z,68.4
2018-05-25T11:08:26.749Z,68.4
2018-05-25T11:09:17.119Z,68.5
2018-05-25T11:10:07.563Z,68.6
2018-05-25T11:10:56.946Z,68.6
2018-05-25T11:11:47.353Z,68.8
2018-05-25T11:12:37.931Z,68.8
2018-05-25T11:13:27.769Z,68.9
2018-05-25T11:14:18.075Z,68.9
2018-05-25T11:15:08.161Z,69
2018-05-25T11:15:58.191Z,69
2018-05-25T11:16:47.971Z,69.1
2018-05-25T11:17:37.810Z,69.2
2018-05-25T11:18:28.114Z,69.3
2018-05-25T11:19:18.180Z,69.3
2018-05-25T11:20:07.713Z,69.4
2018-05-25T11:20:58.327Z,69.4
2018-05-25T11:21:48.728Z,69.4
2018-05-25T11:22:38.725Z,69.5
2018-05-25T11:23:28.794Z,69.6
2018-05-25T11:24:18.324Z,69.6
2018-05-25T11:25:08.063Z,69.6
2018-05-25T11:25:58.698Z,69.7
2018-05-25T11:26:48.514Z,69.8
2018-05-25T11:27:39.144Z,69.8
2018-05-25T11:28:29.176Z,69.8
2018-05-25T11:29:18.925Z,69.9
2018-05-25T11:30:08.742Z,69.9
2018-05-25T11:30:58.804Z,70
2018-05-25T11:31:49.444Z,70.1
2018-05-25T11:32:38.935Z,70.1
2018-05-25T11:33:28.997Z,70.2
2018-05-25T11:34:19.128Z,70.3
2018-05-25T11:35:09.745Z,70.3
2018-05-25T11:35:59.497Z,70.3
2018-05-25T11:36:48.990Z,70.4
2018-05-25T11:37:39.614Z,70.4
2018-05-25T11:38:29.740Z,70.4
2018-05-25T11:39:19.190Z,70.4
2018-05-25T11:40:09.550Z,70.4
2018-05-25T11:40:59.320Z,70.4
2018-05-25T11:41:49.660Z,70.6
2018-05-25T11:42:39.763Z,70.6
2018-05-25T11:43:29.776Z,70.7
2018-05-25T11:44:20.429Z,70.7
2018-05-25T11:45:10.478Z,70.8
2018-05-25T11:46:00.012Z,70.8
2018-05-25T11:46:50.602Z,70.8
2018-05-25T11:47:39.825Z,70.9
2018-05-25T11:48:30.180Z,70.9
2018-05-25T11:49:20.808Z,70.9
2018-05-25T11:50:10.312Z,71
2018-05-25T11:51:00.959Z,71.1
2018-05-25T11:51:50.411Z,71.1
2018-05-25T11:52:40.786Z,71.1
2018-05-25T11:53:29.989Z,71.2
2018-05-25T11:54:20.631Z,71.3
2018-05-25T11:55:10.963Z,71.3
2018-05-25T11:56:01.329Z,71.3
2018-05-25T11:56:51.479Z,71.4
2018-05-25T11:57:41.474Z,71.4
2018-05-25T11:58:30.673Z,71.4
2018-05-25T11:59:20.746Z,71.5
2018-05-25T12:00:11.091Z,71.5
2018-05-25T12:01:01.708Z,71.4
2018-05-25T12:01:51.961Z,71.2
2018-05-25T12:02:41.283Z,71.1
2018-05-25T12:03:31.364Z,71
2018-05-25T12:04:21.676Z,70.9
2018-05-25T12:05:11.475Z,71.1
2018-05-25T12:06:02.111Z,71.2
2018-05-25T12:06:51.614Z,71.3
2018-05-25T12:07:41.926Z,71.4
2018-05-25T12:08:31.420Z,71.4
2018-05-25T12:09:22.116Z,71.3
2018-05-25T12:10:12.168Z,71
2018-05-25T12:11:02.521Z,70.7
2018-05-25T12:11:52.279Z,70.4
2018-05-25T12:12:41.783Z,70.4
2018-05-25T12:13:32.405Z,70.6
2018-05-25T12:14:22.724Z,70.8
2018-05-25T12:15:12.549Z,70.9
2018-05-25T12:16:02.574Z,71
2018-05-25T12:16:52.668Z,71.1
2018-05-25T12:17:42.699Z,71.1
2018-05-25T12:18:33.079Z,71.2
2018-05-25T12:19:23.094Z,71.3
2018-05-25T12:20:12.962Z,71.2
2018-05-25T12:21:02.990Z,71.1
2018-05-25T12:21:53.072Z,71.1
2018-05-25T12:22:42.846Z,71.1
2018-05-25T12:23:33.445Z,71.1
2018-05-25T12:24:23.521Z,71.1
2018-05-25T12:25:13.048Z,71.1
2018-05-25T12:26:01.182Z,71.1
2018-05-25T12:26:51.809Z,71.1
2018-05-25T12:27:41.850Z,71.1
2018-05-25T12:28:31.949Z,71.1
2018-05-25T12:29:21.692Z,71
2018-05-25T12:30:11.747Z,70.9
2018-05-25T12:31:02.127Z,70.9
2018-05-25T12:31:51.908Z,70.8
2018-05-25T12:32:41.127Z,70.6
2018-05-25T12:33:31.544Z,70.6
2018-05-25T12:34:22.107Z,70.5
2018-05-25T12:35:12.162Z,70.4
2018-05-25T12:36:02.530Z,70.4
2018-05-25T12:36:52.025Z,70.4
2018-05-25T12:37:42.058Z,70.4
2018-05-25T12:38:32.432Z,70.4
2018-05-25T12:39:22.735Z,70.4
2018-05-25T12:40:12.809Z,70.4
2018-05-25T12:41:02.878Z,70.5
2018-05-25T12:41:52.951Z,70.5
2018-05-25T12:42:43.064Z,70.4
2018-05-25T12:43:32.835Z,70.4
2018-05-25T12:44:23.152Z,70.3
2018-05-25T12:45:13.205Z,70.2
2018-05-25T12:46:03.034Z,70.2
2018-05-25T12:46:53.354Z,70.1
2018-05-25T12:47:43.172Z,70.1
2018-05-25T12:48:33.450Z,70.2
2018-05-25T12:49:23.278Z,70.2
2018-05-25T12:50:13.312Z,70.2
2018-05-25T12:51:03.681Z,70.2
2018-05-25T12:51:53.466Z,70.3
2018-05-25T12:52:43.524Z,70.3
2018-05-25T12:53:33.598Z,70.4
2018-05-25T12:54:25.335Z,70.4
2018-05-25T12:55:15.633Z,70.5
2018-05-25T12:56:05.755Z,70.6
2018-05-25T12:56:56.040Z,70.6
2018-05-25T12:57:45.546Z,70.6
2018-05-25T12:58:36.167Z,70.7
2018-05-25T12:59:26.251Z,70.6
2018-05-25T13:00:16.283Z,70.7
2018-05-25T13:01:06.069Z,70.7
2018-05-25T13:01:56.428Z,70.8
2018-05-25T13:02:46.496Z,70.8
2018-05-25T13:03:36.562Z,70.8
2018-05-25T13:04:26.606Z,70.8
2018-05-25T13:05:16.714Z,70.9
2018-05-25T13:06:06.473Z,70.9
2018-05-25T13:06:56.793Z,70.9
2018-05-25T13:07:46.923Z,70.9
2018-05-25T13:08:36.675Z,70.9
2018-05-25T13:09:25.986Z,70.9
2018-05-25T13:10:16.782Z,70.8
2018-05-25T13:11:04.949Z,70.8
2018-05-25T13:11:54.998Z,70.8
2018-05-25T13:12:44.770Z,70.7
2018-05-25T13:13:35.394Z,70.7
2018-05-25T13:14:25.189Z,70.6
2018-05-25T13:15:15.262Z,70.4
2018-05-25T13:16:05.298Z,70.4
2018-05-25T13:16:55.673Z,70.3
2018-05-25T13:17:45.714Z,70.1
2018-05-25T13:18:35.823Z,69.9
2018-05-25T13:19:25.603Z,69.7
2018-05-25T13:20:15.742Z,69.6
2018-05-25T13:21:05.962Z,69.4
2018-05-25T13:21:56.086Z,69.3
2018-05-25T13:22:45.862Z,69.1
2018-05-25T13:23:36.185Z,69
2018-05-25T13:24:26.265Z,68.9
2018-05-25T13:25:16.308Z,68.8
2018-05-25T13:26:06.395Z,68.6
2018-05-25T13:26:56.182Z,68.4
2018-05-25T13:27:46.247Z,68.3
2018-05-25T13:28:36.537Z,68.2
2018-05-25T13:29:26.639Z,68.1
2018-05-25T13:30:16.684Z,67.9
2018-05-25T13:31:06.234Z,67.8
2018-05-25T13:31:56.538Z,67.6
2018-05-25T13:32:46.618Z,67.6
2018-05-25T13:33:36.387Z,67.4
2018-05-25T13:34:26.721Z,67.3
2018-05-25T13:35:16.830Z,67.2
2018-05-25T13:36:06.862Z,67.1
2018-05-25T13:36:56.916Z,66.9
2018-05-25T13:37:46.468Z,66.8
2018-05-25T13:38:37.331Z,66.6
2018-05-25T13:39:27.502Z,66.6
2018-05-25T13:40:17.461Z,66.4
2018-05-25T13:41:06.977Z,66.4
2018-05-25T13:41:57.305Z,66.3
2018-05-25T13:42:47.659Z,66.1
2018-05-25T13:43:37.461Z,66
2018-05-25T13:44:27.797Z,65.9
2018-05-25T13:45:17.579Z,65.8
2018-05-25T13:46:07.634Z,65.7
2018-05-25T13:46:57.713Z,65.6
2018-05-25T13:47:48.061Z,65.5
2018-05-25T13:48:38.092Z,65.4
2018-05-25T13:49:28.157Z,65.3
2018-05-25T13:50:18.249Z,65.2
2018-05-25T13:51:08.042Z,65.1
2018-05-25T13:51:57.818Z,65.1
2018-05-25T13:52:48.478Z,64.9
2018-05-25T13:53:38.207Z,64.9
2018-05-25T13:54:28.020Z,64.8
2018-05-25T13:55:18.638Z,64.8
2018-05-25T13:56:08.422Z,64.6
2018-05-25T13:56:58.203Z,64.6
2018-05-25T13:57:48.830Z,64.5
2018-05-25T13:58:39.429Z,64.5
2018-05-25T13:59:28.658Z,64.4
2018-05-25T14:00:18.728Z,64.3
2018-05-25T14:01:09.067Z,64.2
2018-05-25T14:01:59.122Z,64.1
2018-05-25T14:02:48.944Z,64.1
2018-05-25T14:03:39.261Z,63.9
2018-05-25T14:04:29.124Z,63.8
2018-05-25T14:05:18.551Z,63.7
2018-05-25T14:06:09.619Z,63.6
2018-05-25T14:06:59.555Z,63.4
2018-05-25T14:07:49.304Z,63.4
2018-05-25T14:08:39.662Z,63.3
2018-05-25T14:09:29.443Z,63.2
2018-05-25T14:10:19.241Z,63.1
2018-05-25T14:11:09.586Z,63
2018-05-25T14:11:59.349Z,62.9
2018-05-25T14:12:49.483Z,62.8
2018-05-25T14:13:40.043Z,62.8
2018-05-25T14:14:30.094Z,62.6
2018-05-25T14:15:19.604Z,62.5
2018-05-25T14:16:09.947Z,62.4
2018-05-25T14:16:59.512Z,62.4
2018-05-25T14:17:50.354Z,62.3
2018-05-25T14:18:40.404Z,62.2
2018-05-25T14:19:30.528Z,62.1
2018-05-25T14:20:19.978Z,61.9
2018-05-25T14:21:10.637Z,61.8
2018-05-25T14:22:00.140Z,61.7
2018-05-25T14:22:50.201Z,61.6
2018-05-25T14:23:40.808Z,61.5
2018-05-25T14:24:30.588Z,61.4
2018-05-25T14:25:20.933Z,61.3
2018-05-25T14:26:10.749Z,61.2
2018-05-25T14:27:00.807Z,61.1
2018-05-25T14:27:51.154Z,61.1
2018-05-25T14:28:41.249Z,60.9
2018-05-25T14:29:31.261Z,60.9
2018-05-25T14:30:21.328Z,60.7
2018-05-25T14:31:11.115Z,60.6
2018-05-25T14:32:01.191Z,60.5
2018-05-25T14:32:50.979Z,60.4
2018-05-25T14:33:41.300Z,60.4
2018-05-25T14:34:31.362Z,60.2
2018-05-25T14:35:21.122Z,60.1
2018-05-25T14:36:11.760Z,59.9
2018-05-25T14:37:01.557Z,59.5
2018-05-25T14:37:51.625Z,59.1
2018-05-25T14:39:32.026Z,58.1
2018-05-25T14:40:21.840Z,57.7
2018-05-25T14:41:11.923Z,57.3
2018-05-25T14:42:01.930Z,56.8
2018-05-25T14:42:52.302Z,56.4
2018-05-25T14:43:41.515Z,55.9
2018-05-25T14:44:32.133Z,55.4
2018-05-25T14:45:22.472Z,55
2018-05-25T14:46:11.735Z,54.6
2018-05-25T14:47:02.330Z,54.2
2018-05-25T14:47:52.642Z,53.8
2018-05-25T14:48:42.716Z,53.4
2018-05-25T14:49:32.778Z,53.1
2018-05-25T14:50:21.774Z,52.8
2018-05-25T14:51:12.700Z,52.4
2018-05-25T14:52:02.449Z,52.1
2018-05-25T14:52:52.790Z,51.8
2018-05-25T14:53:43.115Z,51.5
2018-05-25T14:54:32.647Z,51.3
2018-05-25T14:55:22.684Z,51
2018-05-25T14:56:13.345Z,50.8
2018-05-25T14:57:03.107Z,50.6
2018-05-25T14:57:53.679Z,50.3
2018-05-25T14:58:43.209Z,50.1
2018-05-25T14:59:33.554Z,49.9
2018-05-25T15:00:22.817Z,49.8
2018-05-25T15:01:13.429Z,49.6
2018-05-25T15:02:03.459Z,49.4
2018-05-25T15:02:53.835Z,49.2
2018-05-25T15:03:43.883Z,49.1
2018-05-25T15:04:33.944Z,48.9
2018-05-25T15:05:23.413Z,48.8
2018-05-25T15:06:13.827Z,48.6
2018-05-25T15:07:04.153Z,48.4
2018-05-25T15:07:54.214Z,48.3
2018-05-25T15:08:43.773Z,48.1
2018-05-25T15:09:34.333Z,48
2018-05-25T15:10:24.128Z,47.9
2018-05-25T15:11:14.440Z,47.8
2018-05-25T15:12:04.293Z,47.6
2018-05-25T15:12:54.035Z,47.4
2018-05-25T15:13:44.639Z,47.4
2018-05-25T15:14:34.687Z,47.3
2018-05-25T15:15:24.764Z,47.1
2018-05-25T15:16:13.705Z,47
2018-05-25T15:17:04.730Z,46.9
2018-05-25T15:17:54.677Z,46.8
2018-05-25T15:18:44.752Z,46.6
2018-05-25T15:19:34.537Z,46.6
2018-05-25T15:20:24.022Z,46.4
2018-05-25T15:21:14.968Z,46.3
2018-05-25T15:22:04.992Z,46.3
2018-05-25T15:22:55.370Z,46.1
2018-05-25T15:23:45.470Z,46
2018-05-25T15:24:35.494Z,45.9
2018-05-25T15:25:25.242Z,45.8
2018-05-25T15:26:15.619Z,45.8
2018-05-25T15:27:05.669Z,45.6
2018-05-25T15:27:55.438Z,45.5
2018-05-25T15:28:45.498Z,45.4
2018-05-25T15:29:36.170Z,45.4
2018-05-25T15:30:25.903Z,45.3
2018-05-25T15:31:16.009Z,45.2
2018-05-25T15:32:06.746Z,45.1
2018-05-25T15:32:55.828Z,45
2018-05-25T15:33:45.893Z,44.9
2018-05-25T15:34:35.664Z,44.9
2018-05-25T15:35:26.298Z,44.8
2018-05-25T15:36:16.359Z,44.7
2018-05-25T15:37:06.405Z,44.6
2018-05-25T15:37:56.473Z,44.6
2018-05-25T15:38:46.280Z,44.5
2018-05-25T15:39:36.358Z,44.4
2018-05-25T15:40:26.404Z,44.4
2018-05-25T15:41:16.725Z,44.3
2018-05-25T15:42:06.239Z,44.2
2018-05-25T15:42:56.586Z,44.1
2018-05-25T15:43:46.387Z,44.1
2018-05-25T15:44:36.424Z,44.1
2018-05-25T15:45:26.537Z,43.9
2018-05-25T15:46:17.121Z,43.9
2018-05-25T15:47:07.194Z,43.9
2018-05-25T15:47:56.399Z,43.8
2018-05-25T15:48:47.071Z,43.7
2018-05-25T15:49:37.365Z,43.6
2018-05-25T15:50:27.433Z,43.6
2018-05-25T15:51:17.557Z,43.6
2018-05-25T15:52:07.567Z,43.5
2018-05-25T15:52:57.412Z,43.4
2018-05-25T15:53:47.781Z,43.4
2018-05-25T15:54:37.510Z,43.3
2018-05-25T15:55:27.821Z,43.3
2018-05-25T15:56:17.986Z,43.2
2018-05-25T15:57:07.935Z,43.1
2018-05-25T15:57:57.496Z,43.1
2018-05-25T15:58:47.825Z,43.1
2018-05-25T15:59:38.161Z,43
2018-05-25T16:00:28.209Z,43
2018-05-25T16:01:18.029Z,42.9
2018-05-25T16:02:08.510Z,42.9
2018-05-25T16:02:58.149Z,42.8
2018-05-25T16:03:47.912Z,42.8
2018-05-25T16:04:38.544Z,42.8
2018-05-25T16:05:28.608Z,42.6
2018-05-25T16:06:18.719Z,42.6
2018-05-25T16:07:08.473Z,42.6
2018-05-25T16:07:58.840Z,42.5
2018-05-25T16:08:49.364Z,42.4
2018-05-25T16:09:38.922Z,42.4
2018-05-25T16:10:28.993Z,42.3
2018-05-25T16:11:18.776Z,42.3
2018-05-25T16:12:09.107Z,42.3
2018-05-25T16:12:58.349Z,42.2
2018-05-25T16:13:49.242Z,42.1
2018-05-25T16:14:39.290Z,42.1
2018-05-25T16:15:29.070Z,42
2018-05-25T16:16:19.458Z,42
2018-05-25T16:17:09.080Z,41.9
2018-05-25T16:17:59.595Z,41.9
2018-05-25T16:18:49.707Z,41.8
2018-05-25T16:19:39.421Z,41.8
2018-05-25T16:20:29.814Z,41.8
2018-05-25T16:21:19.592Z,41.7
2018-05-25T16:22:09.610Z,41.6
2018-05-25T16:22:59.976Z,41.6
2018-05-25T16:23:50.012Z,41.6
2018-05-25T16:24:40.049Z,41.5
2018-05-25T16:25:30.176Z,41.4
2018-05-25T16:26:20.205Z,41.4
2018-05-25T16:27:09.989Z,41.3
2018-05-25T16:28:00.372Z,41.3
2018-05-25T16:28:50.691Z,41.3
2018-05-25T16:29:40.175Z,41.2
2018-05-25T16:30:29.963Z,41.2
2018-05-25T16:31:20.589Z,41.1
2018-05-25T16:32:10.698Z,41.1
2018-05-25T16:33:00.728Z,41
2018-05-25T16:33:50.492Z,41
2018-05-25T16:34:40.575Z,40.9
2018-05-25T16:35:30.920Z,40.9
2018-05-25T16:36:20.695Z,40.9
2018-05-25T16:37:11.045Z,40.8
2018-05-25T16:38:01.107Z,40.8
2018-05-25T16:38:50.608Z,40.8
2018-05-25T16:39:40.965Z,40.7
2018-05-25T16:40:30.480Z,40.6
2018-05-25T16:41:21.371Z,40.6
2018-05-25T16:42:11.412Z,40.6
2018-05-25T16:43:01.207Z,40.6
2018-05-25T16:43:51.553Z,40.5
2018-05-25T16:44:41.612Z,40.4
2018-05-25T16:45:31.380Z,40.4
2018-05-25T16:46:21.756Z,40.4
2018-05-25T16:47:11.525Z,40.3
2018-05-25T16:48:01.868Z,40.3
2018-05-25T16:48:51.642Z,40.3
2018-05-25T16:49:41.709Z,40.3
2018-05-25T16:50:32.041Z,40.3
2018-05-25T16:51:21.843Z,40.2
2018-05-25T16:52:12.203Z,40.1
2018-05-25T16:53:02.244Z,40.1
2018-05-25T16:53:52.314Z,40.1
2018-05-25T16:54:41.273Z,40
2018-05-25T16:55:32.421Z,40
2018-05-25T16:56:22.511Z,39.9
2018-05-25T16:57:12.324Z,39.9
2018-05-25T16:58:02.097Z,39.9
2018-05-25T16:58:53.249Z,39.9
2018-05-25T16:59:42.768Z,39.8
2018-05-25T17:00:32.596Z,39.8
2018-05-25T17:01:22.379Z,39.8
2018-05-25T17:02:12.725Z,39.8
2018-05-25T17:03:03.032Z,39.7
2018-05-25T17:03:53.099Z,39.7
2018-05-25T17:04:43.133Z,39.6
2018-05-25T17:05:33.255Z,39.6
2018-05-25T17:06:23.265Z,39.6
2018-05-25T17:07:13.369Z,39.6
2018-05-25T17:08:02.858Z,39.6
2018-05-25T17:08:53.469Z,39.5
2018-05-25T17:09:43.528Z,39.5
2018-05-25T17:10:33.309Z,39.4
2018-05-25T17:11:23.643Z,39.4
2018-05-25T17:12:13.770Z,39.4
2018-05-25T17:13:03.786Z,39.4
2018-05-25T17:13:53.830Z,39.3
2018-05-25T17:14:43.888Z,39.3
2018-05-25T17:15:33.417Z,39.3
2018-05-25T17:16:23.790Z,39.3
2018-05-25T17:17:14.090Z,39.3
2018-05-25T17:18:04.170Z,39.2
2018-05-25T17:18:53.665Z,39.1
2018-05-25T17:19:44.285Z,39.1
2018-05-25T17:20:33.795Z,39.1
2018-05-25T17:21:24.178Z,39.1
2018-05-25T17:22:14.491Z,39.1
2018-05-25T17:23:04.306Z,39
2018-05-25T17:23:54.061Z,39
2018-05-25T17:24:44.407Z,39
2018-05-25T17:25:34.213Z,38.9
2018-05-25T17:26:24.548Z,38.9
2018-05-25T17:27:14.884Z,38.9
2018-05-25T17:28:05.005Z,38.9
2018-05-25T17:28:54.434Z,38.9
2018-05-25T17:29:45.065Z,38.8
2018-05-25T17:30:35.366Z,38.8
2018-05-25T17:31:25.046Z,38.8
2018-05-25T17:32:15.232Z,38.8
2018-05-25T17:33:05.074Z,38.8
2018-05-25T17:33:55.397Z,38.7
2018-05-25T17:34:45.149Z,38.7
2018-05-25T17:35:34.941Z,38.7
2018-05-25T17:36:25.285Z,38.6
2018-05-25T17:37:15.108Z,38.6
2018-05-25T17:38:05.132Z,38.6
2018-05-25T17:38:55.767Z,38.6
2018-05-25T17:39:45.833Z,38.6
2018-05-25T17:40:35.618Z,38.6
2018-05-25T17:41:25.969Z,38.5
2018-05-25T17:42:16.496Z,38.5
2018-05-25T17:43:06.085Z,38.4
2018-05-25T17:43:56.151Z,38.4
2018-05-25T17:44:46.237Z,38.4
2018-05-25T17:45:36.284Z,38.4
2018-05-25T17:46:26.367Z,38.4
2018-05-25T17:47:16.439Z,38.4
2018-05-25T17:48:06.484Z,38.3
2018-05-25T17:48:56.025Z,38.3
2018-05-25T17:49:46.046Z,38.3
2018-05-25T17:50:36.642Z,38.3
2018-05-25T17:51:26.491Z,38.3
2018-05-25T17:52:16.638Z,38.3
2018-05-25T17:53:06.306Z,38.2
2018-05-25T17:53:56.728Z,38.2
2018-05-25T17:54:46.488Z,38.2
2018-05-25T17:55:37.091Z,38.1
2018-05-25T17:56:26.278Z,38.1
2018-05-25T17:57:16.363Z,38.1
2018-05-25T17:58:06.396Z,38.1
2018-05-25T17:58:57.020Z,38.1
2018-05-25T17:59:47.092Z,38
2018-05-25T18:00:36.857Z,38
2018-05-25T18:01:27.477Z,37.9
2018-05-25T18:02:17.292Z,37.9
2018-05-25T18:03:08.011Z,37.9
2018-05-25T18:03:57.670Z,37.9
2018-05-25T18:04:47.505Z,37.8
2018-05-25T18:05:38.053Z,37.8
2018-05-25T18:06:27.587Z,37.8
2018-05-25T18:07:17.940Z,37.8
2018-05-25T18:08:08.009Z,37.8
2018-05-25T18:08:57.772Z,37.7
2018-05-25T18:09:48.118Z,37.7
2018-05-25T18:10:38.174Z,37.7
2018-05-25T18:11:27.709Z,37.6
2018-05-25T18:12:17.780Z,37.6
2018-05-25T18:13:08.377Z,37.6
2018-05-25T18:13:57.870Z,37.6
2018-05-25T18:14:47.950Z,37.6
2018-05-25T18:15:38.031Z,37.6
2018-05-25T18:16:28.353Z,37.5
2018-05-25T18:17:18.376Z,37.5
2018-05-25T18:18:08.475Z,37.5
2018-05-25T18:18:58.817Z,37.4
2018-05-25T18:19:48.598Z,37.4
2018-05-25T18:20:38.405Z,37.4
2018-05-25T18:21:29.028Z,37.4
2018-05-25T18:22:18.810Z,37.4
2018-05-25T18:23:08.584Z,37.4
2018-05-25T18:23:59.184Z,37.3
2018-05-25T18:24:48.988Z,37.3
2018-05-25T18:25:38.213Z,37.3
2018-05-25T18:26:28.847Z,37.3
2018-05-25T18:27:19.121Z,37.3
2018-05-25T18:28:09.524Z,37.3
2018-05-25T18:28:59.600Z,37.2
2018-05-25T18:29:49.367Z,37.2
2018-05-25T18:30:39.706Z,37.2
2018-05-25T18:31:29.223Z,37.2
2018-05-25T18:32:19.285Z,37.1
2018-05-25T18:33:09.346Z,37.1
2018-05-25T18:34:00.009Z,37.1
2018-05-25T18:34:49.745Z,37
2018-05-25T18:35:39.519Z,36.9
2018-05-25T18:36:30.207Z,36.8
2018-05-25T18:37:20.229Z,36.6
2018-05-25T18:38:09.710Z,36.4
2018-05-25T18:38:59.818Z,36.3
2018-05-25T18:39:50.117Z,36.1